createdAt,value
2022-11-18T00:02:38.527Z,84.27
2022-11-18T00:17:42.138Z,83.76
2022-11-18T00:32:45.564Z,83.12
2022-11-18T00:47:49.175Z,82.40
2022-11-18T01:02:52.615Z,81.35
2022-11-18T01:17:56.075Z,80.71
2022-11-18T01:32:59.305Z,79.56
2022-11-18T01:48:07.714Z,78.74
2022-11-18T02:03:11.501Z,78.47
2022-11-18T02:18:24.047Z,77.63
2022-11-18T02:33:39.345Z,77.71
2022-11-18T02:48:50.340Z,77.79
2022-11-18T03:03:54.075Z,77.63
2022-11-18T03:19:10.154Z,77.33
2022-11-18T03:34:26.119Z,77.68
2022-11-18T03:49:35.155Z,78.32
2022-11-18T04:04:39.152Z,79.22
2022-11-18T04:19:42.736Z,81.00
2022-11-18T04:34:45.899Z,81.55
2022-11-18T04:49:49.136Z,81.42
2022-11-18T05:04:52.538Z,81.83
2022-11-18T05:19:55.910Z,82.15
2022-11-18T05:34:59.098Z,81.22
2022-11-18T05:50:02.541Z,81.67
2022-11-18T06:05:06.613Z,81.90
2022-11-18T06:20:10.771Z,82.40
2022-11-18T06:35:14.292Z,83.06
2022-11-18T06:50:18.332Z,83.59
2022-11-18T07:05:21.959Z,81.28
2022-11-18T07:20:25.154Z,78.08
2022-11-18T07:35:28.860Z,75.93
2022-11-18T07:50:32.655Z,75.24
2022-11-18T08:05:36.228Z,74.15
2022-11-18T08:20:39.451Z,70.40
2022-11-18T08:35:42.650Z,69.04
2022-11-18T08:50:46.073Z,66.99
2022-11-18T09:05:49.795Z,66.36
2022-11-18T09:20:57.994Z,66.68
2022-11-18T09:36:02.325Z,66.59
2022-11-18T09:51:06.486Z,66.84
2022-11-18T10:06:10.737Z,67.29
2022-11-18T10:21:37.732Z,67.67
2022-11-18T10:36:41.582Z,67.93
2022-11-18T10:51:47.474Z,67.67
2022-11-18T11:06:51.240Z,65.83
2022-11-18T11:21:55.246Z,67.09
2022-11-18T11:37:15.227Z,68.38
2022-11-18T11:52:32.352Z,65.88
2022-11-18T12:07:52.110Z,64.61
2022-11-18T12:23:16.222Z,60.43
2022-11-18T12:38:32.815Z,60.00
2022-11-18T12:53:45.251Z,62.89
2022-11-18T13:08:56.360Z,63.01
2022-11-18T13:24:01.231Z,60.84
2022-11-18T13:39:07.140Z,61.11
2022-11-18T13:54:15.847Z,61.47
2022-11-18T14:09:27.674Z,61.35
2022-11-18T14:24:31.325Z,60.60
2022-11-18T14:39:37.801Z,61.77
2022-11-18T14:54:41.444Z,61.94
2022-11-18T15:09:45.494Z,61.34
2022-11-18T15:24:48.943Z,61.34
2022-11-18T15:39:52.141Z,62.37
2022-11-18T15:54:56.050Z,62.03
2022-11-18T16:10:18.015Z,63.72
2022-11-18T16:25:21.416Z,64.67
2022-11-18T16:40:24.640Z,64.64
2022-11-18T16:55:28.224Z,63.69
2022-11-18T17:10:31.969Z,64.28
2022-11-18T17:25:35.789Z,64.74
2022-11-18T17:40:39.340Z,65.19
2022-11-18T17:55:43.645Z,65.53
2022-11-18T18:10:46.841Z,65.72
2022-11-18T18:25:50.120Z,66.09
2022-11-18T18:40:54.722Z,66.19
2022-11-18T18:55:59.244Z,66.79
2022-11-18T19:11:06.356Z,67.00
2022-11-18T19:26:10.229Z,67.44
2022-11-18T19:41:14.114Z,68.41
2022-11-18T19:56:20.693Z,68.93
2022-11-18T20:11:24.921Z,69.06
2022-11-18T20:26:37.329Z,69.31
2022-11-18T20:41:40.902Z,69.45
2022-11-18T20:56:44.675Z,69.94
2022-11-18T21:11:48.362Z,70.26
2022-11-18T21:26:55.085Z,70.87
2022-11-18T21:41:58.703Z,70.94
2022-11-18T21:57:02.348Z,71.16
2022-11-18T22:12:06.938Z,71.73
2022-11-18T22:27:11.676Z,72.03
2022-11-18T22:42:34.184Z,72.65
2022-11-18T22:57:37.811Z,73.29
2022-11-18T23:13:00.166Z,73.57
2022-11-18T23:28:03.343Z,73.56
2022-11-18T23:43:06.880Z,73.90
2022-11-18T23:58:10.336Z,75.09
